Etusivu
METAR-TAF:

METAR-TAF

Lentoasemat :

Kerrville Municipal Airport (Louis Schreiner Field)

Kerrville, Texas, Yhdysvallat

Leveyspiiri: 29-58N, Pituuspiiri: 099-05W, korkeus merenpinnasta: 493 m

Tämänhetkinen sää

Tämä raportti tehtiin 27 minuuttia sitten, kello 18.35 UTC
Tuuli 7 kn etelästä
Lämpötila 33°C
Kosteus 39%
Ilmanpaine 1017 hPa
Näkyvyys: 16.1 km
selkeää

METAR: KERV 261835Z AUTO 19007KT 10SM CLR 33/17 A3004 RMK AO2 T03310171

Aika: 14:02 (19:02 UTC)


TAF: puuttuu

Säähavainnot ja -ennusteet yli 4000 lentoasemalta (METAR- ja TAF-raportit).

Käytössä olevat sääasemat on merkitty karttaan keltaisilla ja punaisilla pisteillä.

Aseta hiiri pisteen päälle nähdäksesi sääaseman nimen.

Klikkaa sitten nähdäksesi säähavainnot ja -ennusteet.

Kartan vaihtaminen: klikkaa mustalla rastilla varustettuja vihreitä pisteitä, niin voit zoomata sisään; viivalla varustettua vihreää pistettä, niin voit zoomata ulos tai vihreitä nuolia, niin pääset viereisille kartoille.


METAR-TAF: